MDT,Max TemperatureF,Mean TemperatureF,Min TemperatureF,Max Dew PointF,MeanDew PointF,Min DewpointF,Max Humidity, Mean Humidity, Min Humidity, Max Sea Level PressureIn, Mean Sea Level PressureIn, Min Sea Level PressureIn, Max VisibilityMiles, Mean VisibilityMiles, Min VisibilityMiles, Max Wind SpeedMPH, Mean Wind SpeedMPH, Max Gust SpeedMPH,PrecipitationIn, CloudCover, Events, WindDirDegrees
2012-9-1,89,74,59,59,51,41,78,47,15,29.96,29.90,29.83,10,10,10,26,12,36,0.04,1,Rain,209
2012-9-2,89,68,48,49,39,31,77,35,7,30.14,29.96,29.88,10,10,10,14,6,28,0.00,0,,221
2012-9-3,93,70,48,42,33,21,61,26,4,30.09,29.96,29.90,10,10,10,22,9,29,0.00,0,,200
2012-9-4,91,72,53,51,40,32,51,30,7,30.04,29.96,29.91,10,10,10,20,11,26,0.00,0,,199
2012-9-5,93,73,55,51,40,25,65,32,4,30.02,29.92,29.82,10,10,10,15,10,,0.00,0,,209
2012-9-6,90,77,64,52,47,43,63,37,18,30.08,29.88,29.82,10,10,10,29,14,36,0.00,2,,208
2012-9-7,86,73,60,57,47,33,87,45,9,30.10,30.03,29.96,10,10,10,20,9,26,0.00,3,,7
2012-9-8,87,66,46,35,28,21,56,23,4,30.18,30.08,30.00,10,10,10,16,7,22,0.00,0,,350
2012-9-9,91,68,45,35,29,23,44,21,5,30.08,29.96,29.86,10,10,10,15,6,22,0.00,0,,198
2012-9-10,89,74,60,58,47,35,93,43,14,30.12,29.90,29.79,10,9,1,26,14,37,0.87,3,Rain,227
2012-9-11,73,65,57,58,54,50,93,70,41,29.99,29.93,29.88,10,10,10,14,7,17,0.08,5,Rain,203
2012-9-12,79,66,54,56,40,16,87,46,6,30.18,30.07,29.99,10,10,10,18,8,26,0.00,1,,340
2012-9-13,80,59,39,32,25,14,68,28,4,30.33,30.25,30.18,10,10,10,15,7,23,0.00,0,,354
2012-9-14,87,63,39,32,26,19,63,29,4,30.33,30.20,30.11,10,10,10,12,5,18,0.00,0,,205
2012-9-15,88,67,46,33,28,21,54,24,4,30.20,30.10,30.02,10,10,10,15,10,23,0.00,0,,195
2012-9-16,87,66,46,34,28,21,52,22,4,30.10,30.00,29.90,10,10,10,18,12,31,0.00,0,,203
2012-9-17,81,64,46,31,26,20,44,22,5,30.07,30.01,29.92,10,10,10,14,9,22,0.00,0,,346
2012-9-18,84,62,39,27,21,15,53,23,4,30.20,30.11,30.04,10,10,10,12,5,,0.00,0,,290
2012-9-19,87,62,37,25,21,16,47,21,4,30.17,30.08,30.01,10,10,10,10,6,,0.00,0,,239
2012-9-20,86,64,43,25,22,20,43,20,4,30.14,30.05,30.00,10,10,10,12,5,17,0.00,0,,277
2012-9-21,87,64,42,25,21,17,43,21,4,30.14,30.03,29.96,10,10,10,10,4,16,0.00,0,,250
2012-9-22,88,65,42,33,26,20,43,22,5,30.11,30.00,29.92,10,10,10,21,8,29,0.00,0,,198
2012-9-23,84,68,52,37,34,30,49,27,10,30.03,29.97,29.92,10,10,10,24,12,34,0.00,0,,200
2012-9-24,73,60,48,49,42,34,93,57,20,30.10,29.96,29.87,10,10,6,23,12,39,0.08,2,Rain,349
2012-9-25,68,54,41,48,42,39,100,78,27,30.08,30.01,29.94,10,7,0,13,4,16,0.00,3,Fog,6
2012-9-26,73,56,39,45,42,37,93,60,23,30.04,30.00,29.96,10,10,10,15,5,18,0.00,0,,319
2012-9-27,78,60,41,43,38,34,86,49,13,30.13,30.04,29.99,10,10,10,10,6,,0.00,0,,285
2012-9-28,82,60,39,41,32,23,77,38,6,30.10,30.01,29.92,10,10,10,10,6,,0.00,0,Rain,246
2012-9-29,82,60,39,34,28,26,58,30,6,30.13,30.05,29.98,10,10,10,10,7,16,0.00,0,,258
2012-9-30,82,62,41,33,28,24,62,30,7,30.20,30.13,30.08,10,10,10,16,7,30,0.00,0,Rain,262